Time;durP1;ratioP1;P1;durP2;ratioP2;P2;SDS_P1;SDS_P2;PMS_P1;PMS_P2;Temp;Humidity;BMP_temperature;BMP_pressure;BME280_temperature;BME280_humidity;BME280_pressure;Samples;Min_cycle;Max_cycle;Signal;HPM_P1;HPM_P2
2023/09/03 00:00:28;;;;;;;0.17;0.17;;;;;;;17.93;67.27;102697.56;5069740;28;20549;-78
2023/09/03 00:02:55;;;;;;;0.20;0.20;;;;;;;17.92;67.29;102696.69;5064392;28;20052;-78
2023/09/03 00:05:21;;;;;;;0.10;0.10;;;;;;;17.91;67.69;102702.09;5060461;28;20033;-78
2023/09/03 00:07:49;;;;;;;0.10;0.10;;;;;;;17.89;67.67;102701.25;5065030;28;20722;-78
2023/09/03 00:10:15;;;;;;;0.10;0.10;;;;;;;17.88;67.54;102700.38;5063920;28;20037;-77
2023/09/03 00:12:41;;;;;;;0.10;0.10;;;;;;;17.87;67.15;102695.03;5066491;28;20017;-78
2023/09/03 00:15:07;;;;;;;0.20;0.20;;;;;;;17.86;66.94;102699.50;5062614;28;20078;-75
2023/09/03 00:17:33;;;;;;;0.32;0.25;;;;;;;17.84;66.97;102704.00;5062305;28;20033;-77
2023/09/03 00:20:00;;;;;;;0.05;0.05;;;;;;;17.82;67.22;102699.59;5064561;28;20056;-78
2023/09/03 00:22:26;;;;;;;0.10;0.10;;;;;;;17.82;67.08;102704.97;5062310;28;20059;-77
2023/09/03 00:24:52;;;;;;;0.10;0.10;;;;;;;17.81;67.53;102708.56;5061856;28;20044;-78
2023/09/03 00:27:18;;;;;;;0.10;0.10;;;;;;;17.78;67.60;102699.69;5064450;28;20040;-78
2023/09/03 00:29:44;;;;;;;0.10;0.10;;;;;;;17.76;67.93;102696.13;5065195;28;20044;-78
2023/09/03 00:32:10;;;;;;;0.10;0.10;;;;;;;17.75;67.76;102697.03;5059985;28;20029;-76
2023/09/03 00:34:36;;;;;;;0.10;0.10;;;;;;;17.75;67.25;102691.69;5056448;28;20033;-77
2023/09/03 00:37:02;;;;;;;0.15;0.15;;;;;;;17.72;67.12;102683.72;5060532;28;20033;-78
2023/09/03 00:39:29;;;;;;;0.40;0.40;;;;;;;17.70;67.73;102682.00;5057182;28;20108;-79
2023/09/03 00:41:55;;;;;;;0.00;0.00;;;;;;;17.67;67.35;102680.25;5060511;28;20047;-78
2023/09/03 00:44:21;;;;;;;0.08;0.08;;;;;;;17.65;67.39;102683.88;5060139;28;20120;-79
2023/09/03 00:46:48;;;;;;;0.10;0.10;;;;;;;17.64;67.57;102682.97;5059893;28;20040;-78
2023/09/03 00:49:19;;;;;;;0.30;0.30;;;;;;;17.63;67.29;102676.75;5060060;28;20035;-78
2023/09/03 00:51:45;;;;;;;0.10;0.10;;;;;;;17.62;67.39;102671.44;5053157;28;20035;-79
2023/09/03 00:54:12;;;;;;;0.10;0.10;;;;;;;17.59;67.66;102676.84;5061217;28;20029;-78
2023/09/03 00:56:39;;;;;;;0.10;0.10;;;;;;;17.56;67.76;102684.97;5060140;28;20033;-79
2023/09/03 00:59:06;;;;;;;0.10;0.10;;;;;;;17.54;67.90;102684.09;5059553;28;20025;-79
2023/09/03 01:01:33;;;;;;;0.10;0.10;;;;;;;17.50;67.87;102687.75;5059144;28;20082;-77
2023/09/03 01:03:59;;;;;;;0.47;0.47;;;;;;;17.49;67.39;102686.84;5059241;28;20481;-78
2023/09/03 01:06:25;;;;;;;0.50;0.50;;;;;;;17.48;67.46;102684.22;5055901;28;20031;-78
2023/09/03 01:08:52;;;;;;;0.10;0.10;;;;;;;17.48;67.28;102676.16;5058982;28;20017;-78
2023/09/03 01:11:44;;;;;;;0.20;0.20;;;;;;;17.50;67.45;102674.34;5060252;28;20037;-78
2023/09/03 01:14:32;;;;;;;0.10;0.10;;;;;;;17.49;67.23;102680.63;5060076;28;20472;-77
2023/09/03 01:17:03;;;;;;;0.20;0.20;;;;;;;17.43;67.61;102674.47;5052684;28;20021;-78
2023/09/03 01:20:05;;;;;;;0.10;0.10;;;;;;;17.47;67.46;102672.63;5054496;28;20070;-76
2023/09/03 01:28:32;;;;;;;0.08;0.08;;;;;;;17.36;67.45;102674.59;5075972;28;20146;-78
2023/09/03 01:31:02;;;;;;;0.10;0.10;;;;;;;17.28;67.72;102685.47;5060094;28;20043;-78
2023/09/03 01:33:30;;;;;;;0.10;0.10;;;;;;;17.25;67.76;102690.91;5056619;28;20030;-78
2023/09/03 01:35:58;;;;;;;0.10;0.10;;;;;;;17.23;67.43;102690.03;5054580;28;20036;-78
2023/09/03 01:38:26;;;;;;;0.10;0.10;;;;;;;17.22;67.71;102693.63;5062195;28;20037;-78
2023/09/03 01:40:57;;;;;;;0.10;0.10;;;;;;;17.22;67.35;102693.63;5054538;28;20029;-78
2023/09/03 01:43:24;;;;;;;0.10;0.10;;;;;;;17.21;67.49;102697.19;5056144;28;20033;-77
2023/09/03 01:46:12;;;;;;;0.10;0.10;;;;;;;17.28;67.17;102704.22;5053996;28;20096;-78
2023/09/03 01:49:02;;;;;;;0.45;0.45;;;;;;;17.23;67.25;102706.09;5058567;28;20033;-78
2023/09/03 01:51:38;;;;;;;0.10;0.10;;;;;;;17.23;67.53;102711.47;5056002;28;20052;-77
2023/09/03 01:54:27;;;;;;;0.10;0.10;;;;;;;17.27;67.32;102723.88;5056080;28;20078;-77
2023/09/03 01:59:43;;;;;;;0.00;0.00;;;;;;;17.21;67.79;102734.72;5101296;27;1187805;-79
2023/09/03 02:02:11;;;;;;;0.10;0.10;;;;;;;17.19;68.27;102736.53;5124534;28;20107;-79
2023/09/03 02:04:38;;;;;;;0.10;0.10;;;;;;;17.19;67.93;102731.19;5125887;28;20054;-79
2023/09/03 02:07:04;;;;;;;0.10;0.10;;;;;;;17.19;68.17;102737.41;5124135;28;20042;-79
2023/09/03 02:09:31;;;;;;;0.10;0.10;;;;;;;17.20;68.36;102717.75;5128154;28;20034;-78
2023/09/03 02:11:58;;;;;;;0.10;0.10;;;;;;;17.22;67.98;102720.41;5127520;28;20223;-79
2023/09/03 02:14:24;;;;;;;0.10;0.10;;;;;;;17.09;68.28;102723.31;5128378;28;20023;-79
2023/09/03 02:16:51;;;;;;;0.55;0.55;;;;;;;17.08;68.81;102716.16;5127395;27;20032;-78
2023/09/03 02:19:17;;;;;;;0.10;0.10;;;;;;;17.07;69.08;102708.16;5130217;27;20037;-78
2023/09/03 02:21:44;;;;;;;0.17;0.17;;;;;;;17.07;69.13;102714.44;5137890;28;20038;-78
2023/09/03 02:24:10;;;;;;;0.55;0.55;;;;;;;17.06;69.34;102701.94;5137497;27;20072;-78
2023/09/03 02:26:44;;;;;;;0.30;0.30;;;;;;;17.12;69.31;102704.50;5133260;27;20028;-79
2023/09/03 02:29:11;;;;;;;0.10;0.10;;;;;;;17.08;68.86;102716.16;5131176;28;20023;-79
2023/09/03 02:31:37;;;;;;;0.10;0.10;;;;;;;17.08;68.87;102709.94;5131860;27;20020;-79
2023/09/03 02:34:05;;;;;;;0.10;0.10;;;;;;;17.07;68.54;102709.06;5129830;27;20031;-77
2023/09/03 02:36:33;;;;;;;0.20;0.20;;;;;;;17.05;68.98;102701.97;5133541;28;20333;-77
2023/09/03 02:39:02;;;;;;;0.10;0.10;;;;;;;17.04;69.26;102693.03;5142819;28;20011;-78
2023/09/03 02:41:30;;;;;;;0.10;0.10;;;;;;;17.02;69.12;102676.09;5131277;28;20038;-79
2023/09/03 02:43:57;;;;;;;0.20;0.20;;;;;;;16.98;69.25;102669.06;5130139;28;20016;-79
2023/09/03 02:46:24;;;;;;;0.10;0.10;;;;;;;16.96;69.19;102665.53;5126683;27;20027;-78
2023/09/03 02:48:50;;;;;;;0.25;0.25;;;;;;;16.94;69.29;102670.91;5127790;28;20027;-77
2023/09/03 02:51:16;;;;;;;0.10;0.10;;;;;;;16.95;69.33;102682.50;5127531;27;20035;-79
2023/09/03 02:53:43;;;;;;;0.47;0.47;;;;;;;16.95;69.23;102674.47;5128605;27;20106;-78
2023/09/03 02:56:10;;;;;;;0.10;0.10;;;;;;;16.96;69.37;102668.22;5134704;28;20045;-79
2023/09/03 02:58:38;;;;;;;0.10;0.10;;;;;;;17.10;68.59;102674.19;5127676;28;20042;-79
2023/09/03 03:01:06;;;;;;;0.10;0.10;;;;;;;17.12;68.26;102682.19;5130005;27;20031;-79
2023/09/03 03:03:33;;;;;;;3.20;0.68;;;;;;;17.12;68.45;102693.81;5128910;27;20110;-80
2023/09/03 03:05:59;;;;;;;0.10;0.10;;;;;;;17.13;68.33;102694.66;5129117;28;20012;-79
2023/09/03 03:08:25;;;;;;;0.47;0.25;;;;;;;17.12;68.79;102691.13;5123762;28;20078;-79
2023/09/03 03:10:51;;;;;;;0.35;0.30;;;;;;;17.18;68.18;102694.59;5121808;28;20071;-79
2023/09/03 03:13:18;;;;;;;0.20;0.20;;;;;;;17.18;68.71;102702.63;5116647;28;20015;-79
2023/09/03 03:15:46;;;;;;;0.10;0.10;;;;;;;17.20;68.46;102706.19;5111112;28;20016;-79
2023/09/03 03:18:12;;;;;;;0.10;0.10;;;;;;;17.21;68.59;102721.31;5115381;28;20084;-79
2023/09/03 03:20:38;;;;;;;0.00;0.00;;;;;;;17.20;68.26;102733.84;5109872;28;20032;-78
2023/09/03 03:23:04;;;;;;;0.30;0.30;;;;;;;17.21;68.26;102735.59;5108810;28;20036;-77
2023/09/03 03:25:30;;;;;;;0.10;0.10;;;;;;;17.22;68.29;102736.47;5116602;28;20127;-78
2023/09/03 03:27:56;;;;;;;0.10;0.10;;;;;;;17.23;68.50;102746.28;5122683;28;20411;-78
2023/09/03 03:30:22;;;;;;;0.10;0.10;;;;;;;17.22;68.63;102744.50;5121733;28;20038;-78
2023/09/03 03:32:49;;;;;;;0.10;0.10;;;;;;;17.22;68.39;102740.06;5120101;28;20070;-78
2023/09/03 03:35:15;;;;;;;0.80;0.32;;;;;;;17.23;68.22;102743.59;5122774;28;20036;-78
2023/09/03 03:37:41;;;;;;;0.20;0.20;;;;;;;17.23;68.31;102731.09;5121448;28;20035;-78
2023/09/03 03:40:07;;;;;;;0.10;0.10;;;;;;;17.21;68.41;102714.19;5123492;28;20028;-79
2023/09/03 03:42:33;;;;;;;0.10;0.10;;;;;;;17.22;68.31;102728.44;5122228;28;20039;-78
2023/09/03 03:44:59;;;;;;;0.10;0.10;;;;;;;17.20;68.59;102731.16;5123233;28;20030;-79
2023/09/03 03:47:26;;;;;;;0.10;0.10;;;;;;;17.21;68.11;102735.59;5121028;28;20032;-79
2023/09/03 03:49:52;;;;;;;0.30;0.30;;;;;;;17.21;68.19;102729.34;5121559;28;20035;-80
2023/09/03 03:52:18;;;;;;;0.63;0.63;;;;;;;17.20;68.04;102736.50;5122432;28;20020;-78
2023/09/03 03:54:44;;;;;;;0.10;0.10;;;;;;;17.21;68.21;102742.75;5123233;28;20065;-79
2023/09/03 03:57:10;;;;;;;0.10;0.10;;;;;;;17.21;68.21;102748.09;5120610;28;20095;-80
2023/09/03 03:59:36;;;;;;;0.32;0.32;;;;;;;17.20;68.35;102741.88;5122578;28;20027;-79
2023/09/03 04:02:02;;;;;;;0.10;0.10;;;;;;;17.20;68.14;102746.34;5123194;28;20036;-80
2023/09/03 04:04:28;;;;;;;0.10;0.10;;;;;;;17.18;68.17;102735.66;5119201;28;20118;-79
2023/09/03 04:06:55;;;;;;;0.10;0.10;;;;;;;17.18;67.98;102734.78;5091950;28;20035;-79
2023/09/03 04:09:21;;;;;;;0.38;0.38;;;;;;;17.18;67.97;102734.78;5119574;28;20030;-78
2023/09/03 04:11:48;;;;;;;0.10;0.10;;;;;;;17.20;67.81;102738.31;5120615;28;20057;-79
2023/09/03 04:14:14;;;;;;;0.10;0.10;;;;;;;17.20;68.13;102749.91;5115219;28;20027;-79
2023/09/03 04:16:41;;;;;;;0.10;0.10;;;;;;;17.20;68.10;102739.19;5118480;28;20043;-79
2023/09/03 04:19:07;;;;;;;0.10;0.10;;;;;;;17.21;68.19;102738.28;5117480;28;20016;-79
2023/09/03 04:21:33;;;;;;;0.22;0.22;;;;;;;17.22;68.32;102742.75;5118014;28;20058;-79
2023/09/03 04:23:59;;;;;;;0.30;0.30;;;;;;;17.22;68.38;102731.13;5120187;28;20035;-79
2023/09/03 04:26:25;;;;;;;0.10;0.10;;;;;;;17.23;68.47;102732.91;5118868;28;20036;-78
2023/09/03 04:28:51;;;;;;;0.43;0.43;;;;;;;17.21;68.13;102738.28;5113345;28;20031;-78
2023/09/03 04:31:17;;;;;;;0.10;0.10;;;;;;;17.24;67.93;102745.38;5120181;28;20043;-78
2023/09/03 04:33:43;;;;;;;0.10;0.10;;;;;;;17.22;68.16;102739.16;5118363;28;20099;-78
2023/09/03 04:36:10;;;;;;;0.10;0.10;;;;;;;17.23;68.06;102747.16;5116293;28;20027;-78
2023/09/03 04:38:36;;;;;;;1.15;1.15;;;;;;;17.23;68.23;102754.31;5117817;28;20027;-79
2023/09/03 04:41:04;;;;;;;0.10;0.10;;;;;;;17.24;68.11;102745.38;5114160;28;20053;-80
2023/09/03 04:43:32;;;;;;;0.10;0.10;;;;;;;17.25;67.95;102749.84;5120338;28;20047;-80
2023/09/03 04:45:58;;;;;;;0.10;0.10;;;;;;;17.26;68.13;102743.56;5120028;28;20072;-78
2023/09/03 04:48:24;;;;;;;0.10;0.10;;;;;;;17.26;68.02;102746.25;5120822;28;20027;-79
2023/09/03 04:50:50;;;;;;;0.20;0.20;;;;;;;17.25;68.13;102748.03;5120581;28;20027;-80
2023/09/03 04:53:17;;;;;;;0.08;0.08;;;;;;;17.25;68.16;102760.56;5123110;28;20028;-79
2023/09/03 04:55:43;;;;;;;0.10;0.10;;;;;;;17.26;68.08;102770.34;5112042;28;20024;-79
2023/09/03 04:58:09;;;;;;;0.10;0.10;;;;;;;17.26;67.92;102767.69;5103512;28;20058;-79
2023/09/03 05:00:36;;;;;;;0.10;0.10;;;;;;;17.25;68.07;102768.59;5126715;28;20027;-80
2023/09/03 05:03:04;;;;;;;0.10;0.10;;;;;;;17.25;68.08;102773.94;5122298;27;20050;-78
2023/09/03 05:05:30;;;;;;;0.00;0.00;;;;;;;17.24;67.91;102777.53;5111151;28;20063;-80
2023/09/03 05:07:56;;;;;;;0.57;0.57;;;;;;;17.23;68.22;102778.44;5114511;28;20035;-80
2023/09/03 05:10:22;;;;;;;0.20;0.20;;;;;;;17.25;68.20;102773.94;5113815;28;20129;-80
2023/09/03 05:12:48;;;;;;;0.10;0.10;;;;;;;17.25;68.51;102779.31;5108106;28;20031;-78
2023/09/03 05:15:14;;;;;;;0.15;0.15;;;;;;;17.25;68.38;102780.16;5114152;28;20038;-78
2023/09/03 05:17:41;;;;;;;0.20;0.20;;;;;;;17.26;68.14;102779.28;5116189;28;20031;-79
2023/09/03 05:20:09;;;;;;;0.20;0.20;;;;;;;17.28;68.13;102784.59;5114348;28;20473;-79
2023/09/03 05:22:35;;;;;;;0.00;0.00;;;;;;;17.31;68.14;102789.91;5110714;28;20458;-79
2023/09/03 05:25:01;;;;;;;0.10;0.10;;;;;;;17.32;68.32;102786.34;5109500;28;20084;-79
2023/09/03 05:27:30;;;;;;;0.20;0.20;;;;;;;17.36;68.55;102790.72;5107468;28;20049;-79
2023/09/03 05:29:58;;;;;;;0.00;0.00;;;;;;;17.36;68.22;102801.44;5108928;28;20073;-79
2023/09/03 05:32:24;;;;;;;0.10;0.10;;;;;;;17.39;68.49;102798.69;5116314;28;20039;-79
2023/09/03 05:34:51;;;;;;;0.25;0.25;;;;;;;17.43;68.39;102800.41;5115719;28;20024;-79
2023/09/03 05:37:17;;;;;;;0.10;0.10;;;;;;;17.44;68.37;102799.47;5110503;28;20450;-79
2023/09/03 05:39:43;;;;;;;0.20;0.20;;;;;;;17.45;68.78;102795.03;5117745;28;20053;-79
2023/09/03 05:42:09;;;;;;;0.10;0.10;;;;;;;17.44;68.90;102804.84;5116557;28;20027;-79
2023/09/03 05:44:35;;;;;;;0.03;0.03;;;;;;;17.48;68.79;102811.03;5115661;28;20110;-78
2023/09/03 05:47:01;;;;;;;0.15;0.15;;;;;;;17.52;68.37;102815.44;5110943;28;20047;-79
2023/09/03 05:49:27;;;;;;;0.10;0.10;;;;;;;17.54;68.44;102812.72;5117458;28;20039;-78
2023/09/03 05:51:53;;;;;;;0.22;0.22;;;;;;;17.57;68.40;102812.66;5119044;28;20484;-79
2023/09/03 05:54:19;;;;;;;0.10;0.10;;;;;;;17.60;68.26;102818.00;5117219;28;20153;-79
2023/09/03 05:56:45;;;;;;;0.05;0.05;;;;;;;17.62;67.99;102833.13;5119686;28;20044;-79
2023/09/03 05:59:13;;;;;;;0.28;0.28;;;;;;;17.65;68.18;102836.69;5119113;28;20079;-79
2023/09/03 06:01:39;;;;;;;0.10;0.10;;;;;;;17.68;68.09;102839.28;5109875;28;20040;-78
2023/09/03 06:04:07;;;;;;;0.10;0.10;;;;;;;17.70;68.38;102835.66;5112067;28;20019;-79
2023/09/03 06:06:38;;;;;;;0.10;0.10;;;;;;;17.75;68.32;102832.91;5117624;28;20404;-79
2023/09/03 06:09:05;;;;;;;0.10;0.10;;;;;;;17.75;68.35;102841.81;5112256;28;20031;-79
2023/09/03 06:11:33;;;;;;;0.00;0.00;;;;;;;17.80;68.28;102839.06;5121297;28;20035;-78
2023/09/03 06:13:59;;;;;;;0.20;0.20;;;;;;;17.84;68.19;102846.13;5116196;28;20024;-76
2023/09/03 06:16:25;;;;;;;0.10;0.10;;;;;;;17.89;68.08;102854.97;5106757;28;20055;-75
2023/09/03 06:18:52;;;;;;;0.10;0.10;;;;;;;17.94;68.05;102860.28;5106109;28;20128;-75
2023/09/03 06:21:18;;;;;;;0.08;0.08;;;;;;;17.98;68.24;102870.06;5117949;28;20110;-79
2023/09/03 06:23:44;;;;;;;0.17;0.17;;;;;;;18.02;67.87;102874.44;5118753;28;20032;-78
2023/09/03 06:26:11;;;;;;;0.47;0.47;;;;;;;18.06;67.93;102878.84;5120600;28;20095;-78
2023/09/03 06:28:37;;;;;;;0.10;0.10;;;;;;;18.12;67.99;102880.53;5121475;28;20020;-78
2023/09/03 06:31:03;;;;;;;0.10;0.10;;;;;;;18.15;68.15;102883.13;5122163;28;20032;-78
2023/09/03 06:33:29;;;;;;;0.10;0.10;;;;;;;18.20;68.00;102891.09;5122684;28;20034;-78
2023/09/03 06:35:56;;;;;;;0.10;0.10;;;;;;;18.26;67.88;102880.25;5120870;28;20038;-78
2023/09/03 06:38:22;;;;;;;0.20;0.20;;;;;;;18.32;67.95;102877.44;5121925;28;20023;-79
2023/09/03 06:40:49;;;;;;;0.10;0.10;;;;;;;18.38;68.07;102876.41;5119347;28;20061;-79
2023/09/03 06:43:16;;;;;;;0.10;0.10;;;;;;;18.45;67.77;102874.50;5112372;28;20027;-78
2023/09/03 06:45:43;;;;;;;0.10;0.10;;;;;;;18.50;67.83;102875.28;5114328;28;20023;-78
2023/09/03 06:48:09;;;;;;;0.10;0.10;;;;;;;18.54;67.64;102871.63;5119861;28;20101;-79
2023/09/03 06:50:35;;;;;;;0.10;0.10;;;;;;;18.56;68.00;102867.13;5117871;28;20034;-79
2023/09/03 06:53:01;;;;;;;0.10;0.10;;;;;;;18.59;68.00;102865.25;5118435;28;20054;-78
2023/09/03 06:55:27;;;;;;;0.10;0.10;;;;;;;18.63;67.68;102866.06;5120179;28;20057;-79
2023/09/03 06:57:53;;;;;;;0.10;0.10;;;;;;;18.67;67.63;102867.75;5109109;28;20572;-79
2023/09/03 07:00:20;;;;;;;0.10;0.10;;;;;;;18.70;67.39;102873.06;5118523;28;20023;-79
2023/09/03 07:02:46;;;;;;;0.20;0.20;;;;;;;18.72;67.55;102871.22;5114685;28;20031;-78
2023/09/03 07:05:14;;;;;;;0.10;0.10;;;;;;;18.75;67.66;102868.50;5120844;28;20016;-79
2023/09/03 07:07:40;;;;;;;0.00;0.00;;;;;;;18.82;67.68;102871.03;5107379;28;20111;-76
2023/09/03 07:10:06;;;;;;;0.10;0.10;;;;;;;18.87;67.77;102874.50;5114570;28;20024;-78
2023/09/03 07:12:33;;;;;;;0.08;0.08;;;;;;;18.94;67.45;102876.16;5126583;28;20023;-79
2023/09/03 07:14:59;;;;;;;0.85;0.32;;;;;;;18.97;67.79;102876.09;5122843;28;20024;-79
2023/09/03 07:17:25;;;;;;;0.10;0.10;;;;;;;19.04;67.48;102883.09;5122447;28;20122;-79
2023/09/03 07:19:54;;;;;;;0.10;0.10;;;;;;;19.11;67.51;102891.00;5118722;28;20083;-79
2023/09/03 07:22:20;;;;;;;0.00;0.00;;;;;;;19.14;67.38;102894.50;5126711;28;20034;-78
2023/09/03 07:24:50;;;;;;;0.10;0.10;;;;;;;19.18;67.48;102906.06;5114394;28;20036;-77
2023/09/03 07:27:16;;;;;;;0.10;0.10;;;;;;;19.21;67.44;102917.59;5118015;28;20030;-77
2023/09/03 07:29:42;;;;;;;0.10;0.10;;;;;;;19.26;67.55;102912.13;5114869;28;20019;-78
2023/09/03 07:32:08;;;;;;;0.30;0.30;;;;;;;19.32;67.17;102921.88;5121550;28;20035;-78
2023/09/03 07:34:34;;;;;;;0.15;0.15;;;;;;;19.37;67.16;102912.75;5114863;28;20055;-77
2023/09/03 07:37:00;;;;;;;0.10;0.10;;;;;;;19.42;67.09;102919.84;5109984;28;20036;-77
2023/09/03 07:39:27;;;;;;;0.10;0.10;;;;;;;19.40;67.31;102912.69;5112934;28;20091;-78
2023/09/03 07:41:56;;;;;;;0.10;0.10;;;;;;;19.46;67.29;102922.41;5113044;28;20034;-76
2023/09/03 07:44:23;;;;;;;0.08;0.08;;;;;;;19.52;67.27;102927.63;5122367;28;20085;-77
2023/09/03 07:46:49;;;;;;;0.10;0.10;;;;;;;19.60;67.20;102922.09;5110044;28;20510;-76
2023/09/03 07:49:15;;;;;;;0.75;0.45;;;;;;;19.68;67.25;102916.50;5103234;28;20032;-77
2023/09/03 07:51:41;;;;;;;0.13;0.13;;;;;;;19.73;67.15;102914.56;5108531;28;20088;-79
2023/09/03 07:54:08;;;;;;;0.05;0.05;;;;;;;19.81;66.81;102917.06;5116306;28;20039;-78
2023/09/03 07:56:34;;;;;;;0.10;0.10;;;;;;;19.90;66.59;102924.94;5116195;28;20117;-78
2023/09/03 07:59:01;;;;;;;0.10;0.10;;;;;;;19.92;66.46;102925.75;5112147;28;20059;-78
2023/09/03 08:01:27;;;;;;;0.77;0.77;;;;;;;19.97;66.12;102926.53;5114675;28;20545;-78
2023/09/03 08:03:53;;;;;;;0.10;0.10;;;;;;;20.03;66.18;102923.66;5122854;27;20023;-78
2023/09/03 08:06:19;;;;;;;0.10;0.10;;;;;;;20.10;66.05;102918.13;5117875;28;20080;-76
2023/09/03 08:08:47;;;;;;;0.10;0.10;;;;;;;20.15;65.97;102916.19;5103579;28;20036;-76
2023/09/03 08:11:13;;;;;;;0.47;0.47;;;;;;;20.24;65.96;102909.66;5101931;28;20024;-77
2023/09/03 08:13:39;;;;;;;0.22;0.22;;;;;;;20.31;65.83;102913.94;5111495;28;20718;-78
2023/09/03 08:16:05;;;;;;;0.10;0.10;;;;;;;20.35;65.43;102924.59;5118144;28;20676;-79
2023/09/03 08:18:31;;;;;;;0.10;0.10;;;;;;;20.42;65.09;102925.28;5117095;28;20032;-79
2023/09/03 08:20:57;;;;;;;12.77;1.35;;;;;;;20.45;64.73;102930.63;5106787;28;20031;-77
2023/09/03 08:23:23;;;;;;;0.10;0.10;;;;;;;20.51;64.18;102929.53;5122890;28;20052;-79
2023/09/03 08:25:49;;;;;;;0.10;0.10;;;;;;;20.59;64.53;102922.13;5121034;28;20046;-80
2023/09/03 08:28:15;;;;;;;0.10;0.10;;;;;;;20.62;64.07;102923.84;5118523;28;20051;-77
2023/09/03 08:30:41;;;;;;;0.10;0.10;;;;;;;20.69;64.28;102920.06;5111369;28;20034;-79
2023/09/03 08:33:08;;;;;;;0.05;0.05;;;;;;;20.74;64.48;102914.56;5113656;28;20061;-77
2023/09/03 08:35:36;;;;;;;0.10;0.10;;;;;;;20.80;64.33;102911.69;5121253;28;20031;-79
2023/09/03 08:38:03;;;;;;;0.10;0.10;;;;;;;20.88;64.38;102912.31;5124546;28;20031;-77
2023/09/03 08:40:29;;;;;;;0.47;0.47;;;;;;;20.97;64.18;102911.16;5122457;28;20031;-78
2023/09/03 08:42:56;;;;;;;0.40;0.40;;;;;;;21.07;63.92;102914.44;5122521;28;20022;-80
2023/09/03 08:45:23;;;;;;;0.30;0.30;;;;;;;21.12;63.14;102920.56;5120021;28;20027;-78
2023/09/03 08:47:49;;;;;;;0.10;0.10;;;;;;;21.25;63.60;102913.88;5120498;28;20028;-77
2023/09/03 08:50:16;;;;;;;0.32;0.32;;;;;;;21.33;63.81;102922.59;5107712;28;20133;-79
2023/09/03 08:52:43;;;;;;;0.40;0.40;;;;;;;21.40;63.28;102927.78;5112121;28;20028;-78
2023/09/03 08:55:12;;;;;;;0.10;0.10;;;;;;;21.50;63.50;102921.16;5106797;28;20119;-78
2023/09/03 08:57:39;;;;;;;0.20;0.20;;;;;;;21.52;63.06;102919.28;5102218;28;20035;-78
2023/09/03 09:00:06;;;;;;;0.10;0.10;;;;;;;21.67;62.99;102927.81;5110088;28;20028;-78
2023/09/03 09:02:35;;;;;;;0.10;0.10;;;;;;;21.75;62.71;102914.97;5108124;27;20121;-77
2023/09/03 09:05:02;;;;;;;0.20;0.20;;;;;;;21.78;61.80;102915.75;5114598;28;20112;-78
2023/09/03 09:07:28;;;;;;;0.20;0.20;;;;;;;21.95;62.74;102915.13;5112700;28;20031;-77
2023/09/03 09:09:58;;;;;;;0.10;0.10;;;;;;;22.07;62.62;102916.53;5111059;28;20054;-77
2023/09/03 09:12:31;;;;;;;0.10;0.10;;;;;;;22.23;62.45;102918.66;5118475;28;20027;-77
2023/09/03 09:15:03;;;;;;;0.43;0.43;;;;;;;22.34;62.13;102918.28;5116206;28;20051;-78
2023/09/03 09:17:36;;;;;;;0.15;0.15;;;;;;;22.47;61.88;102925.03;5113194;28;20420;-77
2023/09/03 09:20:04;;;;;;;0.00;0.00;;;;;;;22.54;61.65;102913.06;5115543;28;20492;-78
2023/09/03 09:22:30;;;;;;;0.10;0.10;;;;;;;22.66;60.98;102913.53;5107970;28;20024;-77
2023/09/03 09:24:57;;;;;;;0.10;0.10;;;;;;;22.76;59.77;102915.78;5108096;28;20432;-78
2023/09/03 09:27:23;;;;;;;0.40;0.40;;;;;;;22.84;58.47;102909.22;5117021;28;20027;-78
2023/09/03 09:29:49;;;;;;;0.10;0.10;;;;;;;22.95;59.54;102909.69;5110016;28;20020;-78
2023/09/03 09:32:22;;;;;;;0.10;0.10;;;;;;;23.08;60.19;102910.09;5113548;28;20023;-78
2023/09/03 09:34:48;;;;;;;0.30;0.30;;;;;;;23.21;59.73;102913.19;5121517;28;20024;-79
2023/09/03 09:37:15;;;;;;;0.43;0.43;;;;;;;23.25;56.24;102907.59;5121668;28;20024;-78
2023/09/03 09:39:44;;;;;;;0.32;0.32;;;;;;;23.45;58.20;102908.56;5118843;28;20028;-79
2023/09/03 09:42:12;;;;;;;0.10;0.10;;;;;;;23.58;58.58;102898.13;5118503;28;20042;-79
2023/09/03 09:44:39;;;;;;;1.05;1.05;;;;;;;23.68;55.91;102898.63;5113132;28;20019;-77
2023/09/03 09:47:16;;;;;;;0.00;0.00;;;;;;;23.85;57.67;102896.06;5114216;28;20076;-78
2023/09/03 09:49:43;;;;;;;0.20;0.20;;;;;;;23.85;57.07;102895.16;5104570;28;20050;-78
2023/09/03 09:52:12;;;;;;;0.22;0.22;;;;;;;23.88;57.39;102893.22;5108788;28;20043;-78
2023/09/03 09:54:40;;;;;;;0.10;0.10;;;;;;;23.94;57.11;102893.91;5109296;28;20066;-78
2023/09/03 09:57:12;;;;;;;0.43;0.43;;;;;;;23.98;57.45;102895.56;5106617;28;20039;-78
2023/09/03 09:59:39;;;;;;;0.30;0.30;;;;;;;24.02;57.37;102891.75;5110290;28;20027;-78
2023/09/03 10:02:15;;;;;;;0.10;0.10;;;;;;;24.10;54.64;102892.31;5107945;28;20073;-77
2023/09/03 10:04:42;;;;;;;0.63;0.63;;;;;;;24.18;55.82;102890.13;5110993;28;20034;-77
2023/09/03 10:07:09;;;;;;;0.10;0.10;;;;;;;24.29;55.80;102895.06;5111978;28;20023;-77
2023/09/03 10:09:35;;;;;;;0.00;0.00;;;;;;;24.42;55.84;102898.06;5109824;28;20049;-80
2023/09/03 10:12:04;;;;;;;0.10;0.10;;;;;;;24.59;55.93;102901.84;5116057;28;20032;-78
2023/09/03 10:14:30;;;;;;;0.10;0.10;;;;;;;24.68;54.50;102902.28;5114035;28;20031;-77
2023/09/03 10:16:59;;;;;;;0.10;0.10;;;;;;;24.74;53.29;102903.84;5112683;28;20053;-79
2023/09/03 10:19:31;;;;;;;0.00;0.00;;;;;;;24.77;53.43;102889.25;5108149;28;20366;-77
2023/09/03 10:22:01;;;;;;;0.10;0.10;;;;;;;24.86;54.38;102895.13;5116956;28;20023;-79
2023/09/03 10:24:28;;;;;;;0.10;0.10;;;;;;;24.90;53.11;102894.97;5116839;28;20028;-77
2023/09/03 10:26:59;;;;;;;0.13;0.13;;;;;;;24.87;50.81;102891.47;5109545;28;20032;-77
2023/09/03 10:29:28;;;;;;;0.22;0.22;;;;;;;24.94;53.19;102891.16;5112312;28;20030;-77
2023/09/03 10:31:56;;;;;;;0.10;0.10;;;;;;;24.94;52.89;102881.19;5113764;28;20115;-76
2023/09/03 10:34:22;;;;;;;0.45;0.45;;;;;;;24.95;53.34;102888.38;5107989;28;20031;-75
2023/09/03 10:37:06;;;;;;;0.10;0.10;;;;;;;25.01;51.86;102889.88;5092381;28;20031;-77
2023/09/03 10:39:32;;;;;;;0.10;0.10;;;;;;;24.98;52.91;102881.91;5102934;28;20023;-76
2023/09/03 10:44:59;;;;;;;0.10;0.10;;;;;;;25.21;52.81;102891.66;5114320;27;20156;-77
2023/09/03 10:47:26;;;;;;;0.03;0.03;;;;;;;25.23;50.37;102891.56;5091541;28;20036;-78
2023/09/03 10:49:54;;;;;;;0.10;0.10;;;;;;;25.36;52.18;102898.13;5097495;28;20028;-77
2023/09/03 10:55:20;;;;;;;1.08;1.02;;;;;;;25.51;51.04;102891.94;5045255;27;20412;-80
2023/09/03 10:57:48;;;;;;;;;;;;;;;25.62;50.04;102893.22;5031407;28;20064;-79
2023/09/03 11:00:17;;;;;;;0.10;0.10;;;;;;;25.54;50.53;102890.91;5024804;28;19956;-79
2023/09/03 11:02:44;;;;;;;0.10;0.10;;;;;;;25.55;50.98;102887.25;5020862;28;20030;-79
2023/09/03 11:05:12;;;;;;;0.08;0.08;;;;;;;25.56;50.57;102882.69;5026523;28;20525;-78
2023/09/03 11:07:39;;;;;;;0.10;0.10;;;;;;;25.58;51.62;102894.34;5034950;28;20062;-78
2023/09/03 11:13:07;;;;;;;0.55;0.55;;;;;;;25.60;50.58;102889.72;5090108;27;20128;-78
2023/09/03 11:15:33;;;;;;;0.35;0.35;;;;;;;25.70;50.77;102895.56;5083472;28;20063;-79
2023/09/03 11:17:59;;;;;;;0.00;0.00;;;;;;;25.84;51.30;102896.59;5080492;28;20558;-77
2023/09/03 11:23:05;;;;;;;0.10;0.10;;;;;;;26.07;49.89;102902.69;5109367;27;20765;-75
2023/09/03 11:28:13;;;;;;;0.00;0.00;;;;;;;26.28;49.42;102903.38;5048112;28;20388;-78
2023/09/03 11:30:47;;;;;;;0.28;0.28;;;;;;;26.40;49.49;102900.94;5037074;28;20057;-79
2023/09/03 11:33:28;;;;;;;0.10;0.10;;;;;;;26.52;49.20;102910.22;5040843;28;20037;-79
2023/09/03 11:35:55;;;;;;;0.10;0.10;;;;;;;26.60;49.23;102905.25;5041500;28;20042;-80
2023/09/03 11:38:25;;;;;;;0.00;0.00;;;;;;;26.77;49.81;102904.34;5034429;28;20517;-79
2023/09/03 11:40:55;;;;;;;0.10;0.10;;;;;;;26.87;48.60;102908.31;5041471;28;20604;-78
2023/09/03 11:43:22;;;;;;;0.10;0.10;;;;;;;26.96;49.02;102899.59;5044759;28;20567;-82
2023/09/03 11:45:48;;;;;;;0.20;0.20;;;;;;;27.01;47.30;102907.50;5052746;28;20036;-79
2023/09/03 11:48:14;;;;;;;2.83;0.60;;;;;;;27.08;46.05;102903.47;5045816;28;20037;-82